Emei Shan, China
Current Conditions -  °F | °C
As of 4:00 PM on Saturday 29 Nov 2014 (Local Time) from ZUUU Reporting Station
Clear Clear  
Wind Chill: 61°   Ceiling: Unl
Heat Index: 61°   Visibility: 5mi
Dew Point: 43°   Wind: 0mph
Humidity: 52%   Direction: NA
Pressure: 29.83"   Gusts: NA
Location:  29.52°N, 103.33°E
Report Text: ZUUU 290800Z 00000MPS 8000 NSC 16/06 Q1010 NOSIG
Loading
Personal Weather Stations






























Interactive Weather Map New forecast layout! Learn more

10-Day Weather Forecast

Advertisements
Track Severe Weather on mobile